Time;durP1;ratioP1;P1;durP2;ratioP2;P2;SDS_P1;SDS_P2;PMS_P1;PMS_P2;Temp;Humidity;BMP_temperature;BMP_pressure;BME280_temperature;BME280_humidity;BME280_pressure;Samples;Min_cycle;Max_cycle;Signal;HPM_P1;HPM_P2
2023/04/13 00:00:09;;;;;;;20.30;19.30;;;;;;;14.22;50.88;99254.44;5034733;28;20470;-76
2023/04/13 00:02:37;;;;;;;20.63;19.52;;;;;;;14.19;50.82;99255.06;5034413;28;20474;-76
2023/04/13 00:05:09;;;;;;;22.50;21.13;;;;;;;14.20;50.69;99251.22;5034404;28;20057;-76
2023/04/13 00:07:39;;;;;;;20.48;19.48;;;;;;;14.19;50.98;99240.69;5033600;28;20025;-77
2023/04/13 00:10:09;;;;;;;22.40;21.13;;;;;;;14.18;51.06;99239.84;5032964;28;20028;-77
2023/04/13 00:12:37;;;;;;;19.52;18.52;;;;;;;14.18;51.12;99244.47;5034434;28;20040;-76
2023/04/13 00:15:04;;;;;;;22.33;21.05;;;;;;;14.15;50.93;99245.88;5034809;28;20033;-78
2023/04/13 00:17:30;;;;;;;19.65;18.65;;;;;;;14.15;50.90;99243.19;5034321;28;20045;-76
2023/04/13 00:19:58;;;;;;;21.42;20.23;;;;;;;14.12;50.96;99254.66;5034118;28;20033;-78
2023/04/13 00:22:27;;;;;;;19.90;18.90;;;;;;;14.11;51.16;99254.94;5032979;28;20440;-77
2023/04/13 00:24:56;;;;;;;21.55;20.38;;;;;;;14.09;50.97;99254.47;5034596;28;20511;-77
2023/04/13 00:27:25;;;;;;;18.98;18.08;;;;;;;14.07;51.04;99262.91;5032807;28;20044;-76
2023/04/13 00:29:51;;;;;;;21.83;20.73;;;;;;;14.05;51.08;99255.03;5033994;28;20037;-77
2023/04/13 00:32:16;;;;;;;20.60;19.60;;;;;;;14.03;50.94;99248.31;5033942;28;20040;-77
2023/04/13 00:34:41;;;;;;;20.00;19.00;;;;;;;14.02;51.04;99246.72;5032872;28;20060;-77
2023/04/13 00:37:07;;;;;;;21.90;20.70;;;;;;;14.01;51.20;99254.06;5032444;28;20053;-77
2023/04/13 00:39:32;;;;;;;20.25;19.25;;;;;;;13.99;51.03;99250.84;5033764;28;20144;-78
2023/04/13 00:42:00;;;;;;;21.88;20.67;;;;;;;13.99;51.10;99244.59;5034059;28;20463;-76
2023/04/13 00:44:27;;;;;;;20.50;19.50;;;;;;;13.96;51.48;99251.44;5032565;28;20033;-76
2023/04/13 00:46:54;;;;;;;20.55;19.45;;;;;;;13.95;51.42;99252.53;5033722;28;20120;-77
2023/04/13 00:49:21;;;;;;;20.45;19.42;;;;;;;13.95;51.11;99255.25;5032198;28;20045;-76
2023/04/13 00:51:47;;;;;;;20.75;19.48;;;;;;;13.91;51.26;99253.44;5032443;28;20045;-76
2023/04/13 00:54:14;;;;;;;20.77;19.65;;;;;;;13.92;51.44;99246.91;5033578;28;20037;-76
2023/04/13 00:56:44;;;;;;;20.52;19.52;;;;;;;13.93;51.39;99245.78;5033564;28;20481;-77
2023/04/13 00:59:10;;;;;;;22.85;21.55;;;;;;;13.90;51.32;99244.50;5033800;28;20470;-77
2023/04/13 01:01:45;;;;;;;21.45;20.35;;;;;;;13.87;51.35;99245.09;5033532;28;20068;-76
2023/04/13 01:04:17;;;;;;;20.10;19.00;;;;;;;13.90;51.21;99247.19;5033778;28;20128;-78
2023/04/13 01:06:51;;;;;;;19.58;18.58;;;;;;;13.90;51.52;99249.13;5032530;28;20040;-77
2023/04/13 01:09:39;;;;;;;19.75;18.75;;;;;;;13.87;51.32;99247.81;5034052;28;20057;-77
2023/04/13 01:12:08;;;;;;;20.58;19.40;;;;;;;13.85;51.17;99239.16;5033319;28;20029;-77
2023/04/13 01:14:39;;;;;;;19.60;18.52;;;;;;;13.85;51.22;99244.59;5033857;28;20108;-77
2023/04/13 01:17:14;;;;;;;20.67;19.30;;;;;;;13.85;51.35;99250.00;5033526;28;20108;-77
2023/04/13 01:19:56;;;;;;;20.33;19.33;;;;;;;13.79;51.53;99262.09;5033791;28;20030;-76
2023/04/13 01:22:27;;;;;;;19.90;18.90;;;;;;;13.79;51.87;99270.22;5033615;28;20496;-77
2023/04/13 01:25:16;;;;;;;19.90;18.90;;;;;;;13.79;51.63;99284.59;5033405;28;20029;-76
2023/04/13 01:27:49;;;;;;;21.02;19.73;;;;;;;13.79;51.51;99279.16;5032348;28;20083;-76
2023/04/13 01:30:18;;;;;;;19.88;18.88;;;;;;;13.80;51.47;99282.69;5033697;28;20095;-76
2023/04/13 01:32:44;;;;;;;18.70;17.75;;;;;;;13.80;51.30;99286.19;5032257;28;20041;-76
2023/04/13 01:35:10;;;;;;;20.63;19.30;;;;;;;13.79;51.63;99284.59;5033079;28;20025;-76
2023/04/13 01:37:42;;;;;;;20.52;19.52;;;;;;;13.79;51.48;99283.78;5034036;28;20442;-77
2023/04/13 01:40:11;;;;;;;21.60;20.40;;;;;;;13.79;51.63;99300.06;5033176;28;20029;-77
2023/04/13 01:42:37;;;;;;;20.45;19.45;;;;;;;13.78;51.50;99298.44;5033226;28;20029;-75
2023/04/13 01:45:11;;;;;;;20.63;19.48;;;;;;;13.78;51.52;99312.84;5033169;28;20418;-76
2023/04/13 01:47:43;;;;;;;20.70;19.63;;;;;;;13.80;51.33;99323.38;5032677;28;20038;-75
2023/04/13 01:50:24;;;;;;;21.95;20.75;;;;;;;13.80;51.51;99329.63;5035933;28;20087;-76
2023/04/13 01:52:52;;;;;;;18.80;17.90;;;;;;;13.79;51.15;99322.59;5037842;28;20029;-76
2023/04/13 01:55:18;;;;;;;19.95;18.95;;;;;;;13.79;51.68;99325.31;5035819;28;20083;-77
2023/04/13 01:57:46;;;;;;;19.02;18.02;;;;;;;13.77;51.62;99335.66;5019459;28;20492;-77
2023/04/13 02:00:13;;;;;;;19.92;18.80;;;;;;;13.74;51.41;99333.53;5037418;28;20106;-77
2023/04/13 02:02:38;;;;;;;18.75;17.75;;;;;;;13.76;51.55;99344.09;5035539;28;20037;-79
2023/04/13 02:05:05;;;;;;;20.90;19.80;;;;;;;13.78;51.63;99352.72;5035593;28;20030;-77
2023/04/13 02:07:32;;;;;;;20.15;19.15;;;;;;;13.76;51.62;99353.03;5036827;28;20466;-76
2023/04/13 02:09:57;;;;;;;19.75;18.42;;;;;;;13.77;51.50;99362.78;5036733;28;20362;-77
2023/04/13 02:12:22;;;;;;;20.77;19.60;;;;;;;13.76;51.32;99366.63;5036560;28;20032;-77
2023/04/13 02:14:48;;;;;;;20.73;19.67;;;;;;;13.76;51.48;99372.03;5036650;28;20496;-77
2023/04/13 02:17:13;;;;;;;20.30;18.80;;;;;;;13.76;51.43;99385.63;5036445;28;20033;-77
2023/04/13 02:19:38;;;;;;;18.63;17.73;;;;;;;13.76;51.65;99384.81;5036428;28;20113;-79
2023/04/13 02:22:07;;;;;;;20.70;19.55;;;;;;;13.75;51.66;99383.19;5036266;28;20033;-75
2023/04/13 02:24:33;;;;;;;20.40;19.40;;;;;;;13.71;51.55;99393.84;5035516;28;20065;-75
2023/04/13 02:27:00;;;;;;;19.83;18.73;;;;;;;13.73;51.44;99417.94;5035121;28;20493;-77
2023/04/13 02:29:25;;;;;;;19.23;18.23;;;;;;;13.71;51.52;99412.84;5035940;28;20482;-77
2023/04/13 02:31:50;;;;;;;20.40;19.33;;;;;;;13.72;51.43;99417.16;5035120;28;20088;-77
2023/04/13 02:34:16;;;;;;;20.08;18.73;;;;;;;13.73;52.00;99426.09;5036183;28;20385;-77
2023/04/13 02:36:42;;;;;;;21.02;19.70;;;;;;;13.71;51.62;99418.25;5035731;28;20049;-76
2023/04/13 02:39:07;;;;;;;20.45;19.13;;;;;;;13.71;51.44;99420.97;5036018;28;20034;-76
2023/04/13 02:41:33;;;;;;;19.92;18.83;;;;;;;13.70;51.48;99419.34;5035415;28;20124;-76
2023/04/13 02:43:58;;;;;;;19.23;18.25;;;;;;;13.70;51.59;99423.97;5035924;28;20373;-76
2023/04/13 02:46:23;;;;;;;20.55;19.35;;;;;;;13.70;51.79;99421.25;5035864;28;20068;-76
2023/04/13 02:48:49;;;;;;;19.50;18.30;;;;;;;13.69;51.41;99431.31;5036014;28;20033;-77
2023/04/13 02:51:14;;;;;;;20.60;19.20;;;;;;;13.68;51.52;99431.59;5035950;28;20080;-77
2023/04/13 02:53:41;;;;;;;21.35;20.25;;;;;;;13.67;51.39;99441.66;5035827;28;20068;-77
2023/04/13 02:56:08;;;;;;;19.33;18.17;;;;;;;13.67;51.38;99438.13;5036111;28;20038;-77
2023/04/13 02:58:34;;;;;;;19.77;18.73;;;;;;;13.66;51.63;99448.19;5034623;28;20381;-77
2023/04/13 03:00:59;;;;;;;19.25;18.25;;;;;;;13.65;51.63;99443.84;5035736;28;20025;-78
2023/04/13 03:03:25;;;;;;;20.60;19.60;;;;;;;13.64;51.67;99453.91;5035572;28;20033;-77
2023/04/13 03:05:50;;;;;;;20.70;19.70;;;;;;;13.63;51.56;99452.31;5018467;28;20041;-77
2023/04/13 03:08:16;;;;;;;22.13;20.83;;;;;;;13.63;51.54;99465.03;5034363;28;20195;-77
2023/04/13 03:10:43;;;;;;;21.38;19.80;;;;;;;13.62;51.54;99466.94;5034716;28;20397;-77
2023/04/13 03:13:09;;;;;;;21.60;20.42;;;;;;;13.61;51.60;99472.69;5035506;28;20041;-77
2023/04/13 03:15:35;;;;;;;19.65;18.65;;;;;;;13.61;51.69;99475.41;5035939;28;20108;-77
2023/04/13 03:18:02;;;;;;;19.75;18.75;;;;;;;13.61;51.57;99478.13;5034147;28;20124;-81
2023/04/13 03:20:28;;;;;;;20.65;19.55;;;;;;;13.60;51.53;99477.28;5035744;28;20042;-77
2023/04/13 03:22:54;;;;;;;19.23;18.13;;;;;;;13.60;51.66;99482.72;5035261;28;20037;-78
2023/04/13 03:25:19;;;;;;;21.60;20.40;;;;;;;13.60;51.59;99484.63;5035241;28;20091;-79
2023/04/13 03:27:45;;;;;;;21.60;20.50;;;;;;;13.59;51.84;99494.69;5034966;28;20025;-76
2023/04/13 03:30:10;;;;;;;20.02;18.98;;;;;;;13.58;51.65;99492.25;5035175;28;20033;-78
2023/04/13 03:32:36;;;;;;;19.05;17.98;;;;;;;13.59;51.67;99496.59;5033976;28;20036;-80
2023/04/13 03:35:02;;;;;;;21.30;20.13;;;;;;;13.56;51.53;99497.97;5034108;28;20127;-79
2023/04/13 03:37:31;;;;;;;20.48;19.38;;;;;;;13.56;51.70;99497.97;5034403;28;20061;-80
2023/04/13 03:39:57;;;;;;;17.92;17.02;;;;;;;13.56;51.61;99505.31;5033601;28;20048;-78
2023/04/13 03:42:23;;;;;;;19.98;18.77;;;;;;;13.54;51.51;99513.75;5035356;28;20038;-77
2023/04/13 03:44:48;;;;;;;19.50;18.40;;;;;;;13.53;51.57;99517.56;5034923;28;20497;-79
2023/04/13 03:47:14;;;;;;;21.60;20.27;;;;;;;13.52;51.66;99518.66;5035426;28;20029;-78
2023/04/13 03:49:39;;;;;;;19.40;18.25;;;;;;;13.52;51.72;99524.06;5035053;28;20044;-81
2023/04/13 03:52:05;;;;;;;20.60;19.45;;;;;;;13.52;51.61;99528.69;5033361;28;20030;-76
2023/04/13 03:54:30;;;;;;;20.52;19.42;;;;;;;13.51;51.78;99527.91;5034973;28;20063;-79
2023/04/13 04:02:06;;;;;;;21.00;19.55;;;;;;;13.47;51.64;99545.03;5121416;22;20115;-69
2023/04/13 04:04:31;;;;;;;21.58;20.48;;;;;;;13.47;51.67;99551.25;4997415;28;20034;-69
2023/04/13 04:06:57;;;;;;;21.73;20.52;;;;;;;13.49;51.66;99548.28;5014735;28;20092;-68
2023/04/13 04:09:23;;;;;;;20.13;19.08;;;;;;;13.49;51.66;99556.41;5014784;28;20041;-69
2023/04/13 04:11:49;;;;;;;19.33;18.23;;;;;;;13.48;51.60;99560.19;5014480;28;20033;-70
2023/04/13 04:14:14;;;;;;;20.50;19.20;;;;;;;13.48;51.63;99561.03;5014291;28;20041;-71
2023/04/13 04:16:39;;;;;;;20.50;19.40;;;;;;;13.46;51.59;99563.22;5014641;28;20053;-69
2023/04/13 04:19:05;;;;;;;20.60;19.30;;;;;;;13.46;51.69;99565.13;5014501;28;20065;-69
2023/04/13 04:21:33;;;;;;;18.88;17.98;;;;;;;13.45;51.46;99566.22;5014443;28;20116;-71
2023/04/13 04:24:00;;;;;;;19.65;18.52;;;;;;;13.45;51.29;99571.63;5014193;28;20451;-70
2023/04/13 04:26:26;;;;;;;19.20;18.20;;;;;;;13.45;51.86;99577.06;5014415;28;20040;-70
2023/04/13 04:28:51;;;;;;;20.23;19.13;;;;;;;13.43;51.77;99577.38;5014398;28;20037;-72
2023/04/13 04:31:17;;;;;;;20.48;19.08;;;;;;;13.43;51.73;99574.66;5014199;28;20092;-69
2023/04/13 04:33:43;;;;;;;20.35;18.90;;;;;;;13.42;51.67;99576.53;4997067;28;20460;-68
2023/04/13 04:36:12;;;;;;;21.30;20.00;;;;;;;13.43;51.56;99590.94;5014154;28;20152;-70
2023/04/13 04:38:40;;;;;;;19.40;18.20;;;;;;;13.41;51.79;99591.22;5014198;28;20053;-69
2023/04/13 04:41:07;;;;;;;20.40;19.10;;;;;;;13.40;51.75;99592.28;5014926;28;20117;-71
2023/04/13 04:43:34;;;;;;;20.42;18.98;;;;;;;13.40;51.54;99599.63;5014008;28;20041;-69
2023/04/13 04:46:01;;;;;;;20.20;19.08;;;;;;;13.39;51.62;99598.03;5013977;28;20037;-70
2023/04/13 04:48:30;;;;;;;20.38;19.35;;;;;;;13.38;51.83;99604.53;5014002;28;20096;-72
2023/04/13 04:50:56;;;;;;;19.70;18.60;;;;;;;13.38;51.69;99602.66;5014172;28;20479;-69
2023/04/13 04:53:22;;;;;;;19.75;18.67;;;;;;;13.39;51.60;99611.59;5013863;28;20037;-71
2023/04/13 04:55:48;;;;;;;19.58;18.48;;;;;;;13.36;51.57;99615.69;5014453;28;20438;-69
2023/04/13 04:58:13;;;;;;;22.05;20.75;;;;;;;13.36;51.62;99612.19;5013720;28;20108;-73
2023/04/13 05:00:39;;;;;;;18.75;17.75;;;;;;;13.35;51.66;99615.97;5013172;28;20172;-69
2023/04/13 05:03:06;;;;;;;19.88;18.77;;;;;;;13.33;51.82;99615.44;5013684;28;20045;-69
2023/04/13 05:05:32;;;;;;;19.83;18.83;;;;;;;13.31;51.68;99615.75;5013745;28;20067;-69
2023/04/13 05:07:58;;;;;;;19.60;18.50;;;;;;;13.31;51.80;99615.75;5013502;28;20096;-68
2023/04/13 05:10:25;;;;;;;19.83;18.80;;;;;;;13.29;51.83;99617.13;5014500;28;20061;-69
2023/04/13 05:12:51;;;;;;;20.15;19.05;;;;;;;13.28;51.96;99613.63;5013755;28;20108;-69
2023/04/13 05:15:16;;;;;;;21.98;20.67;;;;;;;13.28;51.84;99631.78;5013561;28;20029;-68
2023/04/13 05:17:45;;;;;;;19.35;18.25;;;;;;;13.28;51.92;99632.59;5013620;28;20113;-69
2023/04/13 05:20:12;;;;;;;21.75;20.45;;;;;;;13.24;51.65;99639.66;4996279;28;20334;-69
2023/04/13 05:22:38;;;;;;;19.23;18.23;;;;;;;13.24;51.85;99642.38;5013532;28;20539;-69
2023/04/13 05:25:05;;;;;;;21.58;20.27;;;;;;;13.24;51.94;99638.84;5016389;28;20042;-68
2023/04/13 05:27:30;;;;;;;18.95;17.95;;;;;;;13.21;51.90;99638.31;5018211;28;20156;-68
2023/04/13 05:29:56;;;;;;;19.35;18.15;;;;;;;13.24;51.84;99644.28;5017686;28;20038;-69
2023/04/13 05:32:21;;;;;;;21.48;20.35;;;;;;;13.24;51.85;99647.00;5018071;28;20422;-70
2023/04/13 05:34:47;;;;;;;19.73;18.73;;;;;;;13.23;51.78;99645.34;5018124;28;20042;-69
2023/04/13 05:37:14;;;;;;;21.63;20.23;;;;;;;13.20;51.84;99647.56;5017469;28;20045;-69
2023/04/13 05:39:39;;;;;;;21.27;20.05;;;;;;;13.21;51.82;99659.22;5017995;28;20040;-69
2023/04/13 05:42:05;;;;;;;20.85;19.70;;;;;;;13.21;52.10;99665.44;5017876;28;20104;-69
2023/04/13 05:44:31;;;;;;;19.27;18.23;;;;;;;13.18;52.04;99660.59;5017263;28;20084;-69
2023/04/13 05:46:56;;;;;;;19.58;18.58;;;;;;;13.19;51.85;99667.63;5017352;28;20095;-68
2023/04/13 05:49:21;;;;;;;20.88;19.65;;;;;;;13.20;51.77;99677.41;5017805;28;20365;-68
2023/04/13 05:51:47;;;;;;;20.60;19.50;;;;;;;13.19;51.98;99683.91;5016364;28;20045;-69
2023/04/13 05:54:12;;;;;;;22.30;21.00;;;;;;;13.19;51.82;99688.50;5017221;28;20029;-71
2023/04/13 05:56:39;;;;;;;20.13;18.98;;;;;;;13.17;51.84;99690.69;5017201;28;20034;-70
2023/04/13 05:59:07;;;;;;;18.23;17.23;;;;;;;13.17;51.88;99709.69;5017411;28;20042;-65
2023/04/13 06:01:33;;;;;;;19.48;18.48;;;;;;;13.17;51.90;99701.53;5016908;28;20061;-69
2023/04/13 06:03:59;;;;;;;19.00;18.00;;;;;;;13.16;51.81;99710.78;5017211;28;20054;-69
2023/04/13 06:06:25;;;;;;;19.50;18.50;;;;;;;13.14;51.97;99715.69;5017135;28;20453;-69
2023/04/13 06:08:51;;;;;;;19.52;18.30;;;;;;;13.14;52.09;99716.47;5017006;28;20030;-69
2023/04/13 06:11:17;;;;;;;21.38;20.08;;;;;;;13.14;52.01;99724.63;5016568;28;20045;-68
2023/04/13 06:13:43;;;;;;;19.67;18.58;;;;;;;13.14;51.58;99732.75;5016785;28;20034;-68
2023/04/13 06:16:08;;;;;;;19.30;18.25;;;;;;;13.13;51.94;99731.16;5016999;28;20026;-70
2023/04/13 06:18:34;;;;;;;18.77;17.77;;;;;;;13.13;51.94;99731.16;5016945;28;20519;-72
2023/04/13 06:20:59;;;;;;;19.92;18.77;;;;;;;13.12;52.01;99726.78;5016738;28;20492;-68
2023/04/13 06:23:25;;;;;;;19.83;18.73;;;;;;;13.13;52.03;99744.69;5017033;28;20062;-77
2023/04/13 06:25:50;;;;;;;19.23;18.13;;;;;;;13.14;51.78;99742.78;5017076;28;20372;-68
2023/04/13 06:28:16;;;;;;;20.65;19.45;;;;;;;13.12;52.08;99744.97;5017017;28;20036;-67
2023/04/13 06:30:42;;;;;;;20.10;18.90;;;;;;;13.13;52.12;99743.91;5016480;28;20041;-70
2023/04/13 06:33:07;;;;;;;20.33;19.13;;;;;;;13.13;51.92;99749.31;4998875;28;20061;-76
2023/04/13 06:35:32;;;;;;;19.77;18.40;;;;;;;13.11;51.97;99748.78;5016020;28;20030;-69
2023/04/13 06:38:00;;;;;;;19.17;18.17;;;;;;;13.09;52.08;99757.19;5016376;28;20034;-69
2023/04/13 06:40:26;;;;;;;20.98;19.75;;;;;;;13.05;52.06;99752.63;5016607;28;20085;-68
2023/04/13 06:42:53;;;;;;;19.40;18.30;;;;;;;13.06;52.20;99757.75;5016143;28;20097;-68
2023/04/13 06:45:19;;;;;;;19.63;18.42;;;;;;;13.06;52.39;99759.69;5016229;28;20033;-68
2023/04/13 06:47:45;;;;;;;18.08;17.17;;;;;;;13.04;52.24;99770.78;5016792;28;20389;-68
2023/04/13 06:50:12;;;;;;;19.83;18.70;;;;;;;13.02;52.58;99764.03;4998580;28;20034;-68
2023/04/13 06:52:42;;;;;;;19.25;18.25;;;;;;;13.05;52.32;99772.41;5016131;28;20121;-68
2023/04/13 06:55:07;;;;;;;19.20;18.10;;;;;;;13.06;52.36;99778.66;5016110;28;20112;-68
2023/04/13 06:57:33;;;;;;;19.70;18.65;;;;;;;13.05;52.31;99779.72;5016279;28;20058;-68
2023/04/13 06:59:58;;;;;;;20.08;18.88;;;;;;;13.06;52.30;99781.38;5016066;28;20045;-68
2023/04/13 07:02:25;;;;;;;20.00;18.75;;;;;;;13.07;52.22;99791.09;5016962;28;20084;-69
2023/04/13 07:04:51;;;;;;;19.95;18.40;;;;;;;13.04;52.36;99792.47;5016720;28;20097;-68
2023/04/13 07:07:16;;;;;;;19.70;18.55;;;;;;;13.03;52.32;99792.75;5015976;28;20499;-67
2023/04/13 07:09:42;;;;;;;20.27;18.92;;;;;;;13.03;52.16;99798.16;5015766;28;20454;-69
2023/04/13 07:12:07;;;;;;;19.77;18.70;;;;;;;13.02;52.43;99799.28;5015494;28;20400;-69
2023/04/13 07:14:37;;;;;;;19.60;18.55;;;;;;;13.05;52.39;99806.84;5015716;28;20037;-67
2023/04/13 07:17:03;;;;;;;18.67;17.58;;;;;;;13.04;52.37;99814.16;4998326;28;20036;-71
2023/04/13 07:19:30;;;;;;;20.02;18.83;;;;;;;13.03;52.37;99812.56;5015568;28;20112;-68
2023/04/13 07:21:58;;;;;;;19.95;18.95;;;;;;;13.04;52.32;99821.50;5015541;28;20034;-67
2023/04/13 07:24:23;;;;;;;21.30;19.73;;;;;;;13.05;52.48;99825.81;5015708;28;20022;-68
2023/04/13 07:26:49;;;;;;;19.02;17.92;;;;;;;13.04;52.34;99833.16;5015704;28;20029;-68
2023/04/13 07:29:15;;;;;;;19.98;18.85;;;;;;;13.03;52.53;99836.97;4998292;28;20029;-69
2023/04/13 07:31:42;;;;;;;18.05;16.92;;;;;;;13.03;52.57;99836.13;5015282;28;20041;-69
2023/04/13 07:34:07;;;;;;;18.42;17.52;;;;;;;13.03;52.44;99846.97;5015950;28;20034;-68
2023/04/13 07:36:33;;;;;;;19.77;17.90;;;;;;;13.04;52.71;99848.59;5015230;28;20034;-68
2023/04/13 07:38:58;;;;;;;18.27;17.27;;;;;;;13.04;52.75;99856.75;5014945;28;20033;-69
2023/04/13 07:41:23;;;;;;;20.25;19.08;;;;;;;13.06;52.54;99854.56;5015420;28;20034;-68
2023/04/13 07:43:50;;;;;;;19.45;18.17;;;;;;;13.04;52.59;99862.16;5015147;28;20104;-68
2023/04/13 07:46:15;;;;;;;20.67;19.30;;;;;;;13.06;52.29;99855.38;5014396;28;20038;-71
2023/04/13 07:48:41;;;;;;;18.92;17.83;;;;;;;13.06;52.50;99866.22;5015416;28;20040;-68
2023/04/13 07:51:15;;;;;;;18.92;17.83;;;;;;;13.04;52.75;99875.72;4997402;28;20400;-69
2023/04/13 07:53:40;;;;;;;18.42;17.42;;;;;;;13.07;52.61;99880.56;5015729;28;20096;-69
2023/04/13 07:56:06;;;;;;;18.83;17.83;;;;;;;13.07;52.63;99880.56;4997719;28;20414;-68
2023/04/13 07:58:32;;;;;;;20.52;18.90;;;;;;;13.05;52.75;99888.16;5014845;28;20392;-68
2023/04/13 08:00:57;;;;;;;20.20;19.17;;;;;;;13.07;52.95;99886.78;5014735;28;20050;-68
2023/04/13 08:03:23;;;;;;;21.73;20.35;;;;;;;13.06;52.86;99897.94;5015039;28;20429;-68
2023/04/13 08:05:48;;;;;;;18.73;17.73;;;;;;;13.08;52.74;99893.03;5015259;28;20034;-67
2023/04/13 08:08:13;;;;;;;19.45;18.38;;;;;;;13.08;52.73;99917.44;4996991;28;20117;-68
2023/04/13 08:10:39;;;;;;;18.38;17.38;;;;;;;13.09;52.76;99913.66;5014628;28;20083;-68
2023/04/13 08:13:04;;;;;;;18.10;17.13;;;;;;;13.09;52.71;99917.16;5014239;28;20049;-68
2023/04/13 08:15:30;;;;;;;20.10;18.75;;;;;;;13.10;52.64;99918.81;5014528;28;20054;-67
2023/04/13 08:17:57;;;;;;;20.55;18.98;;;;;;;13.11;52.83;99931.25;5014599;28;20034;-68
2023/04/13 08:20:23;;;;;;;20.60;19.27;;;;;;;13.10;52.95;99931.53;5014735;28;20038;-68
2023/04/13 08:22:48;;;;;;;21.23;19.65;;;;;;;13.11;52.87;99933.16;5014312;28;20040;-70
2023/04/13 08:25:14;;;;;;;18.17;17.08;;;;;;;13.12;52.86;99929.34;5014434;28;20084;-67
2023/04/13 08:27:40;;;;;;;18.88;17.88;;;;;;;13.12;52.89;99937.47;5014987;28;20034;-67
2023/04/13 08:30:07;;;;;;;18.42;17.52;;;;;;;13.13;52.90;99945.34;4980733;28;20476;-67
2023/04/13 08:32:32;;;;;;;20.95;19.67;;;;;;;13.14;52.93;99943.44;5014670;28;20034;-69
2023/04/13 08:34:57;;;;;;;18.63;17.63;;;;;;;13.13;53.04;99947.25;5014278;28;20533;-68
2023/04/13 08:37:26;;;;;;;21.10;19.73;;;;;;;13.14;53.07;99951.56;5014860;28;20057;-68
2023/04/13 08:39:58;;;;;;;18.50;17.40;;;;;;;13.16;52.92;99952.91;5013891;28;20026;-69
2023/04/13 08:42:25;;;;;;;21.33;19.63;;;;;;;13.16;53.09;99954.81;5014474;28;20422;-71
2023/04/13 08:44:51;;;;;;;20.40;19.20;;;;;;;13.18;53.15;99958.88;5013964;28;20036;-68
2023/04/13 08:47:16;;;;;;;18.48;17.25;;;;;;;13.19;53.07;99946.94;5014147;28;20038;-68
2023/04/13 08:49:44;;;;;;;18.80;17.70;;;;;;;13.20;53.15;99961.28;5013647;28;20030;-68
2023/04/13 08:52:09;;;;;;;18.42;17.42;;;;;;;13.22;53.22;99972.69;5013480;28;20417;-67
2023/04/13 08:54:35;;;;;;;20.63;19.50;;;;;;;13.23;53.06;99971.59;5013740;28;20026;-69
2023/04/13 08:57:02;;;;;;;18.73;17.70;;;;;;;13.26;52.96;99976.47;5013965;28;20038;-69
2023/04/13 08:59:28;;;;;;;21.58;20.17;;;;;;;13.27;53.02;99977.31;5014014;28;20476;-68
2023/04/13 09:01:56;;;;;;;18.50;17.50;;;;;;;13.27;53.00;99999.81;5013690;28;20400;-68
2023/04/13 09:04:25;;;;;;;19.27;18.17;;;;;;;13.27;52.80;99993.56;5013843;28;20052;-68
2023/04/13 09:06:50;;;;;;;19.23;17.50;;;;;;;13.30;52.82;100001.94;5013567;28;20028;-68
2023/04/13 09:09:17;;;;;;;19.05;17.60;;;;;;;13.35;52.92;100010.06;5014067;28;20131;-71
2023/04/13 09:11:44;;;;;;;19.88;18.58;;;;;;;13.37;52.82;100012.50;5014107;28;20038;-69
2023/04/13 09:14:10;;;;;;;19.48;18.25;;;;;;;13.40;52.65;100017.38;5013562;28;20536;-73
2023/04/13 09:16:42;;;;;;;20.95;19.52;;;;;;;13.37;52.69;100026.88;5013894;28;20046;-67
2023/04/13 09:19:08;;;;;;;18.63;17.63;;;;;;;13.36;52.83;100033.41;5014192;28;20034;-69
2023/04/13 09:21:39;;;;;;;20.17;19.02;;;;;;;13.38;52.74;100033.94;5013588;28;20057;-68
2023/04/13 09:24:05;;;;;;;19.30;18.23;;;;;;;13.38;52.80;100027.69;4996758;28;20452;-66
2023/04/13 09:26:48;;;;;;;20.40;18.80;;;;;;;13.41;52.74;100040.72;5013627;28;20034;-69
2023/04/13 09:29:15;;;;;;;18.33;17.42;;;;;;;13.40;52.83;100042.59;5013865;28;20025;-67
2023/04/13 09:31:41;;;;;;;21.27;19.52;;;;;;;13.41;52.68;100055.09;5013939;28;20100;-69
2023/04/13 09:34:07;;;;;;;20.75;19.55;;;;;;;13.44;52.62;100048.28;5013979;28;20137;-70
2023/04/13 09:36:32;;;;;;;19.33;18.30;;;;;;;13.47;52.77;100046.91;5013705;28;20034;-67
2023/04/13 09:38:58;;;;;;;18.77;17.77;;;;;;;13.45;53.10;100059.94;5013487;28;20389;-67
2023/04/13 09:41:28;;;;;;;20.02;19.02;;;;;;;13.47;52.78;100074.03;5013574;28;20393;-71
2023/04/13 09:43:54;;;;;;;20.73;19.52;;;;;;;13.49;52.88;100067.25;4995898;28;20429;-69
2023/04/13 09:46:19;;;;;;;19.58;18.48;;;;;;;13.51;52.77;100080.56;5013435;28;20026;-69
2023/04/13 09:48:45;;;;;;;19.98;18.70;;;;;;;13.50;52.79;100078.91;5014138;28;20044;-68
2023/04/13 09:51:10;;;;;;;19.15;17.92;;;;;;;13.53;52.86;100089.19;4979982;28;20528;-68
2023/04/13 09:53:48;;;;;;;20.13;18.95;;;;;;;13.53;52.79;100087.31;5013233;28;20116;-70
2023/04/13 09:56:14;;;;;;;20.30;18.70;;;;;;;13.55;52.96;100098.69;5013693;28;20068;-67
2023/04/13 09:58:45;;;;;;;21.95;20.58;;;;;;;13.57;52.88;100096.50;5012950;28;20478;-68
2023/04/13 10:01:11;;;;;;;19.17;18.17;;;;;;;13.57;52.73;100106.56;5013482;28;20466;-67
2023/04/13 10:03:37;;;;;;;21.13;19.90;;;;;;;13.59;53.06;100107.09;5013241;28;20044;-67
2023/04/13 10:06:06;;;;;;;20.38;19.25;;;;;;;13.60;52.93;100108.72;5013529;28;20030;-68
2023/04/13 10:08:36;;;;;;;22.52;21.02;;;;;;;13.63;52.77;100119.00;5013167;28;20466;-68
2023/04/13 10:11:03;;;;;;;20.52;19.42;;;;;;;13.61;52.93;100121.22;5015961;28;20107;-68
2023/04/13 10:13:36;;;;;;;19.92;18.92;;;;;;;13.65;52.79;100124.97;5017346;28;20367;-75
2023/04/13 10:16:43;;;;;;;19.90;18.23;;;;;;;13.66;53.00;100133.91;5016776;28;20032;-68
2023/04/13 10:19:12;;;;;;;19.73;18.73;;;;;;;13.65;53.02;100133.13;4998892;28;20038;-68
2023/04/13 10:21:50;;;;;;;19.92;18.73;;;;;;;13.65;53.07;100138.53;5016678;28;20108;-68
2023/04/13 10:24:17;;;;;;;19.60;18.50;;;;;;;13.66;53.03;100139.34;5015762;28;20037;-67
2023/04/13 10:26:43;;;;;;;22.85;21.33;;;;;;;13.68;52.90;100151.56;5016504;28;20461;-68
2023/04/13 10:29:10;;;;;;;21.15;19.92;;;;;;;13.71;52.84;100145.59;4999713;28;20438;-68
2023/04/13 10:31:46;;;;;;;22.60;20.60;;;;;;;13.74;52.85;100155.88;5016706;28;20477;-68
2023/04/13 10:34:33;;;;;;;21.27;20.17;;;;;;;13.75;52.86;100162.13;5016445;28;20033;-69
2023/04/13 10:37:02;;;;;;;19.25;18.05;;;;;;;13.74;52.80;100165.94;5016962;28;20037;-69
2023/04/13 10:39:30;;;;;;;19.75;18.55;;;;;;;13.77;52.90;100165.38;5016459;28;20060;-70
2023/04/13 10:42:00;;;;;;;19.52;18.30;;;;;;;13.78;52.77;100181.41;4998384;28;20038;-68
2023/04/13 10:44:25;;;;;;;22.10;20.17;;;;;;;13.80;52.90;100186.53;5016787;28;20042;-66
2023/04/13 10:46:51;;;;;;;19.88;18.77;;;;;;;13.77;52.58;100187.91;5016219;28;20365;-70
2023/04/13 10:49:16;;;;;;;21.30;19.70;;;;;;;13.78;52.77;100192.25;5016225;28;20145;-68
2023/04/13 10:51:44;;;;;;;22.08;20.60;;;;;;;13.81;52.74;100188.97;5016024;28;20389;-75
2023/04/13 10:54:12;;;;;;;20.17;18.92;;;;;;;13.83;52.75;100194.09;5015970;28;20033;-67
2023/04/13 10:56:39;;;;;;;22.25;20.90;;;;;;;13.84;52.75;100188.41;5015984;28;20034;-71
2023/04/13 10:59:04;;;;;;;20.95;19.83;;;;;;;13.85;52.83;100184.59;4998219;28;20060;-67
2023/04/13 11:01:30;;;;;;;19.23;18.05;;;;;;;13.87;52.83;100187.03;5015901;28;20054;-68
2023/04/13 11:04:01;;;;;;;19.75;18.75;;;;;;;13.88;52.82;100196.81;4998373;28;20029;-70
2023/04/13 11:06:27;;;;;;;19.77;18.33;;;;;;;13.89;52.83;100201.16;5015814;28;20025;-73
2023/04/13 11:09:05;;;;;;;21.85;20.65;;;;;;;13.91;52.94;100196.28;5016142;28;20030;-69
2023/04/13 11:11:31;;;;;;;20.90;19.23;;;;;;;13.92;52.94;100208.75;5015874;28;20033;-68
2023/04/13 11:13:56;;;;;;;23.58;21.83;;;;;;;13.95;52.79;100210.09;5014086;28;20036;-68
2023/04/13 11:16:22;;;;;;;23.08;21.20;;;;;;;13.99;52.84;100216.59;4998124;28;20026;-69
2023/04/13 11:18:47;;;;;;;21.58;20.38;;;;;;;14.01;52.79;100208.97;5015713;28;20101;-68